Ridge Farm, IL (61870)

8:59 PM CDT on October 01, 2014 (GMT -0500)
Vermilion County Emergency Management Agency | Change Station
CLOSE
Current Station
Personal Weather Station
Location: Danville, IL
Elevation: 655 ft
Nearby Weather Stations

Elev 655 ft 40.08 °N, 87.63 °W | Updated 2 seconds ago

Clear
Clear
71.2 °F
Feels Like 71.2 °F
N
0.0
Wind Variable Wind from ESE
Gusts 0.0 mph

Today
High -- | Low -- °F
--% Chance of Precip.
Yesterday
High -- | Low -- °F
Precip. -- in
6:46 AM 6:32 PM
First Quarter, 53% visible
Pressure 29.92 in
Visibility 10.0 miles
Clouds Clear
Dew Point 69 °F
Humidity 93%
Rainfall 0.00 in
Snow Depth Not available.
UV 0 out of 12
Pollen 3.90 out of 12
Air Quality Not available.
Flu Activity Not available.
METAR KPRG 020135Z AUTO 11004KT 10SM CLR 21/17 A2992 RMK AO2 T02090170

More Conditions Fewer Conditions

Pressure 29.92 in
Visibility 10.0 miles
Clouds Clear
Dew Point 69 °F
Humidity 93%
Rainfall 0.00 in
Snow Depth Not available.
UV 0 out of 12
Pollen 3.90 out of 12
Air Quality Not available.
Flu Activity Not available.
METAR KPRG 020135Z AUTO 11004KT 10SM CLR 21/17 A2992 RMK AO2 T02090170

More Conditions Fewer Conditions

10-Day Weather Forecast

Almanac

Astronomy

Oct. 01, 2014 Rise Set
Actual Time 6:46 AM CDT 6:32 PM CDT
Civil Twilight 6:19 AM CDT 6:59 PM CDT
Nautical Twilight 5:48 AM CDT 7:31 PM CDT
Astronomical Twilight 5:16 AM CDT 8:02 PM CDT
Moon 1:47 PM CDT (10/1) No Moon Set
Length of Visible Light 12h 39m
Length of Day
11h 46m
Tomorrow will be 2m 36s shorter.
First Quarter, 53% of the Moon is Illuminated
Today
First Quarter
Oct 8
Full
Oct 15
Last Quarter
Oct 23
New
Oct 30
First Quarter

Today's Extremes

State Highs State Lows

Community

WunderPhotos

Upload Photos

1,758,118 photos uploaded!

WunderBlogs® & News

Nearby

Snow Depth

Station Depth Elevation
No new snow has been reported.

Earthquake Activity

City Distance Mag. Time & Date
No recent earthquake activity has been reported nearby.
Minimum magnitude displayed is 2.5.

Coastal Water Temperatures

Place Temperature
No Stations Reporting

Nearby Weather Stations